Time;durP1;ratioP1;P1;durP2;ratioP2;P2;SDS_P1;SDS_P2;PMS_P1;PMS_P2;Temp;Humidity;BMP_temperature;BMP_pressure;BME280_temperature;BME280_humidity;BME280_pressure;Samples;Min_cycle;Max_cycle;Signal;HPM_P1;HPM_P2
2023/07/17 00:02:14;;;;;;;7.53;4.57;;;18.10;99.90;;;;;;5010639;28;20482;-68
2023/07/17 00:04:43;;;;;;;5.37;4.83;;;18.10;99.90;;;;;;5010528;28;20449;-68
2023/07/17 00:07:11;;;;;;;5.37;4.80;;;18.00;99.90;;;;;;4991062;28;21073;-67
2023/07/17 00:09:39;;;;;;;5.90;5.30;;;17.90;99.90;;;;;;4990891;28;20484;-68
2023/07/17 00:12:07;;;;;;;5.80;5.27;;;17.90;99.90;;;;;;4991356;28;20874;-68
2023/07/17 00:14:35;;;;;;;5.30;4.57;;;17.90;99.90;;;;;;4990773;28;20993;-68
2023/07/17 00:17:04;;;;;;;5.33;4.30;;;18.00;99.90;;;;;;4990930;28;20497;-68
2023/07/17 00:19:32;;;;;;;9.40;5.13;;;18.10;99.90;;;;;;4990884;28;20466;-68
2023/07/17 00:22:01;;;;;;;5.30;4.80;;;18.20;99.90;;;;;;4990540;28;20486;-68
2023/07/17 00:24:29;;;;;;;8.00;5.30;;;18.10;99.90;;;;;;4991022;28;20439;-67
2023/07/17 00:26:57;;;;;;;8.00;4.93;;;18.10;99.90;;;;;;4991029;28;20450;-67
2023/07/17 00:29:28;;;;;;;4.83;4.43;;;18.10;99.90;;;;;;4990822;28;20855;-67
2023/07/17 00:31:56;;;;;;;6.17;5.50;;;18.10;99.90;;;;;;4997364;28;20465;-67
2023/07/17 00:34:24;;;;;;;5.80;5.13;;;18.10;99.90;;;;;;5009948;28;20441;-68
2023/07/17 00:36:52;;;;;;;7.27;4.90;;;18.00;99.90;;;;;;5008828;28;20454;-67
2023/07/17 00:39:23;;;;;;;6.03;4.37;;;17.90;99.90;;;;;;5003405;28;20503;-68
2023/07/17 00:41:52;;;;;;;5.47;4.97;;;17.90;99.90;;;;;;5010008;28;20557;-68
2023/07/17 00:44:20;;;;;;;6.63;4.73;;;18.10;99.90;;;;;;5009770;28;20597;-68
2023/07/17 00:46:49;;;;;;;4.93;4.43;;;18.10;99.90;;;;;;5006252;28;20454;-67
2023/07/17 00:49:18;;;;;;;4.80;4.37;;;18.00;99.90;;;;;;5009848;28;20462;-67
2023/07/17 00:51:48;;;;;;;5.60;5.10;;;18.20;99.90;;;;;;5009825;28;20480;-68
2023/07/17 00:54:19;;;;;;;7.10;4.40;;;18.20;99.90;;;;;;5009218;28;20446;-68
2023/07/17 00:56:48;;;;;;;11.10;4.50;;;18.20;99.90;;;;;;5009789;28;20918;-68
2023/07/17 00:59:18;;;;;;;5.03;4.60;;;18.30;99.90;;;;;;5009694;28;20458;-68
2023/07/17 01:01:47;;;;;;;7.90;4.77;;;18.40;99.90;;;;;;5006121;28;20481;-69
2023/07/17 01:04:15;;;;;;;5.10;4.20;;;18.40;99.90;;;;;;5010896;28;20500;-69
2023/07/17 01:06:43;;;;;;;6.00;5.40;;;18.40;99.90;;;;;;5013683;28;20567;-68
2023/07/17 01:09:12;;;;;;;6.20;4.37;;;18.30;99.90;;;;;;5013562;28;20465;-68
2023/07/17 01:11:40;;;;;;;6.03;4.30;;;18.50;99.90;;;;;;5000433;28;20450;-68
2023/07/17 01:14:17;;;;;;;5.60;4.97;;;18.50;99.90;;;;;;4993747;28;20950;-68
2023/07/17 01:16:46;;;;;;;7.83;4.60;;;18.40;99.90;;;;;;4994367;28;20438;-67
2023/07/17 01:19:14;;;;;;;4.80;4.37;;;18.50;99.90;;;;;;4994167;28;20521;-67
2023/07/17 01:21:46;;;;;;;6.07;4.83;;;18.50;99.90;;;;;;4994224;28;20561;-67
2023/07/17 01:24:16;;;;;;;5.03;4.53;;;18.50;99.90;;;;;;4993727;28;20541;-67
2023/07/17 01:26:43;;;;;;;5.17;4.60;;;18.60;99.90;;;;;;4995321;28;20450;-68
2023/07/17 01:29:11;;;;;;;4.73;4.00;;;18.50;99.90;;;;;;4994060;28;20570;-68
2023/07/17 01:31:41;;;;;;;4.40;3.43;;;18.60;99.90;;;;;;4993953;28;20434;-68
2023/07/17 01:34:09;;;;;;;6.20;4.07;;;18.80;99.90;;;;;;4993702;28;20443;-68
2023/07/17 01:36:37;;;;;;;6.80;3.93;;;18.80;99.90;;;;;;4993850;28;20953;-68
2023/07/17 01:39:05;;;;;;;4.93;4.00;;;18.60;99.90;;;;;;4993419;28;20458;-68
2023/07/17 01:41:35;;;;;;;7.13;4.23;;;18.40;99.90;;;;;;4993641;28;20855;-68
2023/07/17 01:44:03;;;;;;;4.10;3.63;;;18.30;99.90;;;;;;5010686;28;20450;-67
2023/07/17 01:46:31;;;;;;;5.13;4.07;;;18.30;99.90;;;;;;5014352;28;20448;-68
2023/07/17 01:48:59;;;;;;;6.03;3.87;;;18.30;99.90;;;;;;5013615;28;20488;-67
2023/07/17 01:51:27;;;;;;;5.80;4.50;;;18.30;99.90;;;;;;5006787;28;20977;-67
2023/07/17 01:53:55;;;;;;;5.47;4.10;;;18.30;99.90;;;;;;4993443;28;20450;-67
2023/07/17 01:56:23;;;;;;;4.47;4.07;;;18.20;99.90;;;;;;4993566;28;20443;-68
2023/07/17 01:58:52;;;;;;;6.20;3.90;;;18.10;99.90;;;;;;4993514;28;20449;-67
2023/07/17 02:01:20;;;;;;;5.17;3.87;;;18.10;99.90;;;;;;4993999;28;20835;-67
2023/07/17 02:03:49;;;;;;;5.03;4.57;;;18.30;99.90;;;;;;4992149;28;20443;-67
2023/07/17 02:06:17;;;;;;;5.83;4.60;;;18.40;99.90;;;;;;4993464;28;20447;-67
2023/07/17 02:08:45;;;;;;;7.60;4.10;;;18.40;99.90;;;;;;4993626;28;20454;-68
2023/07/17 02:11:13;;;;;;;6.13;4.43;;;18.30;99.90;;;;;;4993511;28;20447;-67
2023/07/17 02:13:41;;;;;;;4.40;4.00;;;18.20;99.90;;;;;;4992921;28;20454;-67
2023/07/17 02:16:11;;;;;;;4.57;4.17;;;18.30;99.90;;;;;;5009351;28;20867;-67
2023/07/17 02:18:39;;;;;;;5.47;4.00;;;18.30;99.90;;;;;;5012758;28;20441;-67
2023/07/17 02:21:07;;;;;;;4.40;4.00;;;18.40;99.90;;;;;;5012770;28;20477;-67
2023/07/17 02:23:35;;;;;;;6.97;4.33;;;18.40;99.90;;;;;;5012529;28;20480;-68
2023/07/17 02:26:03;;;;;;;5.53;4.17;;;18.40;99.90;;;;;;5012832;28;20928;-67
2023/07/17 02:28:31;;;;;;;5.50;4.17;;;18.40;99.90;;;;;;5012836;28;20877;-68
2023/07/17 02:30:59;;;;;;;5.63;4.27;;;18.40;99.90;;;;;;5012119;28;20470;-68
2023/07/17 02:33:28;;;;;;;4.50;4.10;;;18.40;99.90;;;;;;4993009;28;20447;-68
2023/07/17 02:35:56;;;;;;;5.67;4.00;;;18.30;99.90;;;;;;4993081;28;20470;-68
2023/07/17 02:38:24;;;;;;;4.87;4.10;;;18.40;99.90;;;;;;4992705;28;20455;-68
2023/07/17 02:40:52;;;;;;;5.57;4.60;;;18.30;99.90;;;;;;4992849;28;20913;-68
2023/07/17 02:43:20;;;;;;;5.33;4.60;;;18.30;99.90;;;;;;4992078;28;20957;-68
2023/07/17 02:45:48;;;;;;;4.93;4.27;;;18.20;99.90;;;;;;4993055;28;20454;-67
2023/07/17 02:48:16;;;;;;;4.73;4.30;;;18.20;99.90;;;;;;4993559;28;20896;-67
2023/07/17 02:50:45;;;;;;;4.00;3.70;;;18.20;99.90;;;;;;4992340;28;20467;-67
2023/07/17 02:53:13;;;;;;;4.70;4.20;;;18.30;99.90;;;;;;4992138;28;20439;-68
2023/07/17 02:55:41;;;;;;;6.03;4.40;;;18.20;99.90;;;;;;4992193;28;20502;-68
2023/07/17 02:58:09;;;;;;;6.90;4.07;;;18.00;99.90;;;;;;4992212;28;20443;-68
2023/07/17 03:00:37;;;;;;;5.17;3.83;;;18.00;99.90;;;;;;4994003;28;20487;-68
2023/07/17 03:03:07;;;;;;;4.57;4.13;;;17.90;99.90;;;;;;5011132;28;20481;-67
2023/07/17 03:05:36;;;;;;;5.33;4.30;;;17.80;99.90;;;;;;5011195;28;20481;-67
2023/07/17 03:08:05;;;;;;;6.10;4.43;;;17.70;99.90;;;;;;5011224;28;20448;-67
2023/07/17 03:10:33;;;;;;;6.00;3.93;;;17.60;99.90;;;;;;5011404;28;20486;-67
2023/07/17 03:13:01;;;;;;;4.83;4.30;;;17.50;99.90;;;;;;5011492;28;20446;-67
2023/07/17 03:15:29;;;;;;;5.90;3.93;;;17.70;99.90;;;;;;5011549;28;20871;-67
2023/07/17 03:17:57;;;;;;;4.83;4.07;;;17.80;99.90;;;;;;5011604;28;20507;-68
2023/07/17 03:20:27;;;;;;;6.63;4.33;;;17.90;99.90;;;;;;5005142;28;20849;-67
2023/07/17 03:22:55;;;;;;;7.40;4.50;;;18.00;99.90;;;;;;4991662;28;20517;-67
2023/07/17 03:25:25;;;;;;;7.70;5.27;;;18.00;99.90;;;;;;4991653;28;20533;-67
2023/07/17 03:27:53;;;;;;;7.23;4.30;;;18.00;99.90;;;;;;4991203;28;20837;-67
2023/07/17 03:30:21;;;;;;;8.53;5.00;;;17.90;99.90;;;;;;4991509;28;20462;-67
2023/07/17 03:32:49;;;;;;;6.87;5.43;;;17.90;99.90;;;;;;4991450;28;20442;-67
2023/07/17 03:35:17;;;;;;;11.00;5.30;;;17.80;99.90;;;;;;4991672;28;20454;-67
2023/07/17 03:37:45;;;;;;;5.53;4.43;;;17.80;99.90;;;;;;4992458;28;20459;-67
2023/07/17 03:40:16;;;;;;;6.80;5.17;;;17.60;99.90;;;;;;4991478;28;20462;-68
2023/07/17 03:42:45;;;;;;;7.90;4.60;;;17.70;99.90;;;;;;4991186;28;20522;-67
2023/07/17 03:45:13;;;;;;;10.10;5.63;;;17.60;99.90;;;;;;4991682;28;20457;-68
2023/07/17 03:47:41;;;;;;;4.50;4.10;;;17.60;99.90;;;;;;4991267;28;20777;-67
2023/07/17 03:50:10;;;;;;;7.30;4.70;;;17.50;99.90;;;;;;4991102;28;20517;-67
2023/07/17 03:52:37;;;;;;;7.93;5.20;;;17.50;99.90;;;;;;4992396;28;20447;-66
2023/07/17 03:55:06;;;;;;;6.80;5.07;;;17.60;99.90;;;;;;4991340;28;20967;-66
2023/07/17 03:57:34;;;;;;;5.70;4.57;;;17.60;99.90;;;;;;4991377;28;20450;-67
2023/07/17 04:00:04;;;;;;;6.57;4.37;;;17.60;99.90;;;;;;4991086;28;20791;-67
2023/07/17 04:02:32;;;;;;;6.70;4.77;;;17.60;99.90;;;;;;4991125;28;20455;-69
2023/07/17 04:05:00;;;;;;;9.00;4.50;;;17.60;99.90;;;;;;4995312;28;20482;-68
2023/07/17 04:07:28;;;;;;;6.63;5.20;;;17.60;99.90;;;;;;5010871;28;20537;-67
2023/07/17 04:09:56;;;;;;;7.03;5.23;;;17.50;99.90;;;;;;5010386;28;20511;-68
2023/07/17 04:12:24;;;;;;;7.30;5.10;;;17.50;99.90;;;;;;5010480;28;20439;-68
2023/07/17 04:14:53;;;;;;;7.27;5.00;;;17.40;99.90;;;;;;5010761;28;20964;-68
2023/07/17 04:17:22;;;;;;;7.83;4.93;;;17.40;99.90;;;;;;5010890;28;20576;-68
2023/07/17 04:19:50;;;;;;;4.67;4.20;;;17.30;99.90;;;;;;5010512;28;21274;-67
2023/07/17 04:22:18;;;;;;;6.70;5.40;;;17.30;99.90;;;;;;5008819;28;20944;-67
2023/07/17 04:24:46;;;;;;;7.40;5.10;;;17.30;99.90;;;;;;5010242;28;20857;-68
2023/07/17 04:27:14;;;;;;;6.13;4.93;;;17.30;99.90;;;;;;5010596;28;20441;-65
2023/07/17 04:29:42;;;;;;;5.80;5.17;;;17.40;99.90;;;;;;5003663;28;20592;-67
2023/07/17 04:32:10;;;;;;;5.10;4.60;;;17.40;99.90;;;;;;5008091;28;20812;-67
2023/07/17 04:34:39;;;;;;;6.63;4.60;;;17.40;99.90;;;;;;5009756;28;20500;-66
2023/07/17 04:37:07;;;;;;;8.13;5.10;;;17.50;99.90;;;;;;5008080;28;20438;-67
2023/07/17 04:39:35;;;;;;;6.93;4.93;;;17.40;99.90;;;;;;5002919;28;20858;-69
2023/07/17 04:42:04;;;;;;;6.50;5.30;;;17.50;99.90;;;;;;5009608;28;20480;-68
2023/07/17 04:44:32;;;;;;;6.00;4.90;;;17.70;99.90;;;;;;5009595;28;20516;-69
2023/07/17 04:47:00;;;;;;;5.17;4.60;;;17.80;99.90;;;;;;5000091;28;20530;-69
2023/07/17 04:49:28;;;;;;;6.60;5.53;;;17.80;99.90;;;;;;4990287;28;20877;-67
2023/07/17 04:51:57;;;;;;;6.00;5.40;;;17.90;99.90;;;;;;4990305;28;20439;-67
2023/07/17 04:54:25;;;;;;;5.40;4.90;;;17.90;99.90;;;;;;4990890;28;20522;-67
2023/07/17 04:56:53;;;;;;;6.33;5.70;;;17.90;99.90;;;;;;4990148;28;20466;-68
2023/07/17 04:59:21;;;;;;;5.33;4.83;;;17.90;99.90;;;;;;4989836;28;20984;-66
2023/07/17 05:01:49;;;;;;;5.80;4.50;;;18.00;99.90;;;;;;4990317;28;20450;-67
2023/07/17 05:04:17;;;;;;;6.07;5.47;;;18.20;99.90;;;;;;4989827;28;20490;-67
2023/07/17 05:06:45;;;;;;;7.43;5.30;;;18.40;99.90;;;;;;4990256;28;20489;-66
2023/07/17 05:09:14;;;;;;;5.97;5.00;;;18.60;99.90;;;;;;4989741;28;20474;-67
2023/07/17 05:11:42;;;;;;;5.07;4.17;;;18.80;99.90;;;;;;5002399;28;20524;-70
2023/07/17 05:14:11;;;;;;;7.73;4.73;;;18.80;99.90;;;;;;5009594;28;20468;-69
2023/07/17 05:16:39;;;;;;;6.80;4.90;;;18.80;99.90;;;;;;5006299;28;20481;-70
2023/07/17 05:19:08;;;;;;;5.17;4.47;;;18.90;99.90;;;;;;5006142;28;20556;-69
2023/07/17 05:21:36;;;;;;;4.97;4.33;;;18.90;99.90;;;;;;5009995;28;20441;-70
2023/07/17 05:24:04;;;;;;;7.20;4.10;;;19.00;99.90;;;;;;5009302;28;20543;-68
2023/07/17 05:26:33;;;;;;;6.23;4.40;;;19.10;99.90;;;;;;5009670;28;20442;-70
2023/07/17 05:29:01;;;;;;;4.97;3.73;;;19.30;99.90;;;;;;5007959;28;20476;-69
2023/07/17 05:31:29;;;;;;;7.50;3.97;;;19.50;99.90;;;;;;5006500;28;20441;-71
2023/07/17 05:33:57;;;;;;;6.53;3.97;;;19.70;99.90;;;;;;4995098;28;20457;-70
2023/07/17 05:36:25;;;;;;;6.03;4.33;;;19.80;99.90;;;;;;5003468;28;20508;-69
2023/07/17 05:38:53;;;;;;;7.23;5.00;;;20.00;99.90;;;;;;5009277;28;20540;-69
2023/07/17 05:41:21;;;;;;;4.60;3.70;;;20.20;99.90;;;;;;5004121;28;20443;-69
2023/07/17 05:43:51;;;;;;;5.73;3.77;;;20.30;99.90;;;;;;4994925;28;21015;-71
2023/07/17 05:46:19;;;;;;;7.27;4.50;;;20.40;99.90;;;;;;5005999;28;20937;-71
2023/07/17 05:48:47;;;;;;;6.47;4.60;;;20.50;99.90;;;;;;5000879;28;20454;-69
2023/07/17 05:51:15;;;;;;;6.83;4.87;;;20.60;99.90;;;;;;5002332;28;20446;-70
2023/07/17 05:53:44;;;;;;;6.40;4.30;;;20.60;99.90;;;;;;5004922;28;20447;-70
2023/07/17 05:56:14;;;;;;;5.57;4.70;;;20.60;99.90;;;;;;5010200;28;20467;-69
2023/07/17 05:58:42;;;;;;;6.50;5.40;;;20.50;99.90;;;;;;5006669;28;20439;-69
2023/07/17 06:01:12;;;;;;;6.77;5.20;;;20.50;99.90;;;;;;5002713;28;20450;-70
2023/07/17 06:03:40;;;;;;;7.33;4.90;;;20.60;99.90;;;;;;5010125;28;20450;-70
2023/07/17 06:06:08;;;;;;;7.40;5.87;;;20.70;99.90;;;;;;5012602;28;20499;-70
2023/07/17 06:08:37;;;;;;;6.63;4.80;;;20.90;99.90;;;;;;4999461;28;20463;-70
2023/07/17 06:11:05;;;;;;;9.27;5.93;;;21.10;99.90;;;;;;4999505;28;20991;-70
2023/07/17 06:13:33;;;;;;;6.80;4.50;;;21.30;99.90;;;;;;5010807;28;20442;-70
2023/07/17 06:16:01;;;;;;;8.37;5.00;;;21.30;99.90;;;;;;5011488;28;20866;-70
2023/07/17 06:18:30;;;;;;;7.50;5.50;;;21.30;99.90;;;;;;5016020;28;20548;-70
2023/07/17 06:20:58;;;;;;;7.20;5.33;;;21.20;99.90;;;;;;5011569;28;20458;-69
2023/07/17 06:23:26;;;;;;;6.77;5.00;;;21.00;99.90;;;;;;5012305;28;20559;-69
2023/07/17 06:25:54;;;;;;;5.03;4.13;;;21.00;99.90;;;;;;5012464;28;21029;-69
2023/07/17 06:28:22;;;;;;;7.73;5.20;;;20.90;99.90;;;;;;5012386;28;20473;-70
2023/07/17 06:30:51;;;;;;;9.20;5.17;;;20.90;99.90;;;;;;5011652;28;20527;-68
2023/07/17 06:33:20;;;;;;;8.23;4.93;;;21.00;99.90;;;;;;5005162;28;20457;-69
2023/07/17 06:35:50;;;;;;;6.50;4.33;;;21.00;99.90;;;;;;5010676;28;20444;-69
2023/07/17 06:38:18;;;;;;;6.87;4.83;;;21.10;99.90;;;;;;5003532;28;20453;-70
2023/07/17 06:40:46;;;;;;;9.30;5.37;;;21.10;99.90;;;;;;4990992;28;20466;-66
2023/07/17 06:43:16;;;;;;;6.50;4.90;;;21.20;99.90;;;;;;4990957;28;20915;-67
2023/07/17 06:45:44;;;;;;;6.73;4.70;;;21.40;99.90;;;;;;4991085;28;20517;-69
2023/07/17 06:48:12;;;;;;;5.63;4.80;;;21.50;99.90;;;;;;4990985;28;20450;-67
2023/07/17 06:50:40;;;;;;;8.47;4.90;;;21.50;99.90;;;;;;4990741;28;20459;-67
2023/07/17 06:53:10;;;;;;;5.10;4.60;;;21.60;99.90;;;;;;4990584;28;20447;-70
2023/07/17 06:55:38;;;;;;;7.57;4.53;;;21.70;99.90;;;;;;4991926;28;20446;-69
2023/07/17 06:58:06;;;;;;;6.17;4.73;;;21.80;99.90;;;;;;4990722;28;20509;-66
2023/07/17 07:00:34;;;;;;;4.90;3.00;;;21.90;99.90;;;;;;4990540;28;20467;-68
2023/07/17 07:03:02;;;;;;;5.47;3.50;;;22.20;99.90;;;;;;4989049;28;20531;-69
2023/07/17 07:05:30;;;;;;;5.80;3.90;;;22.40;99.90;;;;;;4990624;28;20816;-70
2023/07/17 07:07:58;;;;;;;9.47;4.00;;;22.40;99.90;;;;;;4990473;28;20537;-69
2023/07/17 07:10:27;;;;;;;4.10;3.27;;;22.60;99.90;;;;;;4990875;28;20490;-70
2023/07/17 07:12:55;;;;;;;5.00;4.33;;;22.80;98.90;;;;;;4991332;28;20455;-69
2023/07/17 07:15:24;;;;;;;7.47;4.30;;;22.80;96.70;;;;;;4990727;28;20451;-69
2023/07/17 07:17:52;;;;;;;6.10;4.50;;;22.80;95.90;;;;;;4990703;28;20545;-69
2023/07/17 07:20:20;;;;;;;4.10;3.70;;;22.80;95.20;;;;;;4991076;28;20474;-69
2023/07/17 07:22:48;;;;;;;4.80;4.30;;;22.80;94.40;;;;;;4998120;28;20545;-69
2023/07/17 07:25:16;;;;;;;4.93;3.70;;;22.90;94.00;;;;;;4991633;28;20862;-69
2023/07/17 07:27:45;;;;;;;7.10;4.20;;;23.10;93.40;;;;;;4991190;28;20454;-67
2023/07/17 07:30:14;;;;;;;6.50;4.93;;;23.20;92.60;;;;;;4989693;28;20478;-70
2023/07/17 07:32:42;;;;;;;5.93;5.13;;;23.20;90.00;;;;;;4991186;28;20542;-69
2023/07/17 07:35:10;;;;;;;6.10;4.70;;;23.20;90.20;;;;;;4991812;28;20478;-69
2023/07/17 07:37:38;;;;;;;5.30;4.60;;;23.30;90.00;;;;;;4991662;28;20466;-69
2023/07/17 07:40:10;;;;;;;8.33;4.53;;;23.40;90.70;;;;;;4991497;28;20489;-69
2023/07/17 07:42:38;;;;;;;9.53;5.20;;;23.60;86.90;;;;;;4991196;28;20443;-71
2023/07/17 07:45:08;;;;;;;9.03;5.40;;;23.60;85.00;;;;;;4999681;28;20484;-71
2023/07/17 07:47:36;;;;;;;6.80;5.10;;;23.50;82.70;;;;;;5010403;28;20434;-71
2023/07/17 07:50:05;;;;;;;5.87;5.10;;;23.60;81.20;;;;;;5010588;28;20474;-71
2023/07/17 07:52:33;;;;;;;5.33;4.80;;;23.70;80.70;;;;;;5010264;28;20454;-70
2023/07/17 07:55:01;;;;;;;6.57;5.70;;;23.80;76.70;;;;;;5010955;28;20512;-70
2023/07/17 07:57:29;;;;;;;7.30;6.27;;;23.90;79.60;;;;;;5011095;28;20434;-70
2023/07/17 07:59:57;;;;;;;5.33;4.90;;;23.90;70.60;;;;;;5011014;28;20498;-70
2023/07/17 08:02:27;;;;;;;9.02;5.97;;;23.90;72.60;;;;;;5009907;28;20447;-70
2023/07/17 08:04:54;;;;;;;8.20;5.80;;;24.00;74.70;;;;;;5009367;28;20321;-70
2023/07/17 08:07:22;;;;;;;7.73;5.20;;;24.00;72.70;;;;;;4991333;28;20847;-71
2023/07/17 08:09:50;;;;;;;7.73;5.30;;;24.00;71.90;;;;;;4991057;28;20513;-71
2023/07/17 08:12:21;;;;;;;6.40;5.50;;;24.00;69.40;;;;;;4991085;28;20971;-71
2023/07/17 08:14:50;;;;;;;8.33;5.50;;;24.00;70.50;;;;;;4991255;28;20447;-70
2023/07/17 08:17:18;;;;;;;5.57;5.03;;;24.00;69.20;;;;;;4991479;28;20501;-69
2023/07/17 08:19:47;;;;;;;5.53;4.93;;;24.10;70.80;;;;;;4992104;28;20484;-70
2023/07/17 08:22:15;;;;;;;5.47;4.63;;;24.30;67.10;;;;;;4990896;28;20450;-70
2023/07/17 08:24:43;;;;;;;7.50;5.70;;;24.30;63.20;;;;;;4990756;28;20816;-71
2023/07/17 08:27:11;;;;;;;6.73;5.20;;;24.40;64.80;;;;;;4991010;28;20447;-71
2023/07/17 08:29:39;;;;;;;8.73;5.37;;;24.60;65.90;;;;;;4990786;28;20458;-71
2023/07/17 08:32:08;;;;;;;7.03;5.17;;;24.70;61.70;;;;;;4990895;28;20702;-70
2023/07/17 08:34:36;;;;;;;6.73;4.97;;;24.80;60.50;;;;;;5003794;28;20449;-70
2023/07/17 08:37:06;;;;;;;5.50;5.00;;;24.80;58.10;;;;;;5010408;28;20437;-70
2023/07/17 08:39:33;;;;;;;5.27;4.70;;;24.80;58.50;;;;;;5010311;28;20522;-70
2023/07/17 08:42:02;;;;;;;6.07;5.07;;;24.90;57.70;;;;;;5010141;28;20442;-71
2023/07/17 08:44:31;;;;;;;6.33;5.53;;;25.20;57.90;;;;;;5010024;28;20549;-71
2023/07/17 08:47:00;;;;;;;5.80;4.83;;;25.30;55.90;;;;;;5010063;28;20477;-70
2023/07/17 08:49:28;;;;;;;4.87;4.27;;;25.60;57.10;;;;;;5008106;28;20466;-70
2023/07/17 08:51:58;;;;;;;7.70;5.07;;;25.90;56.30;;;;;;5010310;28;20480;-70
2023/07/17 08:54:29;;;;;;;7.93;4.80;;;26.20;54.90;;;;;;5010165;28;20434;-70
2023/07/17 08:57:02;;;;;;;6.20;5.07;;;26.20;56.40;;;;;;5009896;28;20983;-70
2023/07/17 08:59:31;;;;;;;7.73;5.20;;;26.30;53.50;;;;;;5010238;28;20460;-71
2023/07/17 09:02:00;;;;;;;8.73;5.67;;;26.10;53.00;;;;;;5010204;28;20503;-70
2023/07/17 09:04:30;;;;;;;6.80;4.57;;;25.80;52.90;;;;;;4998452;28;20455;-70
2023/07/17 09:06:58;;;;;;;6.00;4.70;;;25.80;53.00;;;;;;4990421;28;20482;-70
2023/07/17 09:09:27;;;;;;;5.70;5.13;;;25.90;52.90;;;;;;4990104;28;20475;-71
2023/07/17 09:12:07;;;;;;;7.10;5.60;;;25.90;52.50;;;;;;4990226;28;20446;-70
2023/07/17 09:14:36;;;;;;;6.17;5.00;;;25.80;53.40;;;;;;4990016;28;20505;-70
2023/07/17 09:17:07;;;;;;;7.33;5.10;;;25.80;53.30;;;;;;4990305;28;20479;-71
2023/07/17 09:19:37;;;;;;;6.60;5.23;;;26.00;53.50;;;;;;4989742;28;20475;-71
2023/07/17 09:22:07;;;;;;;7.80;5.80;;;26.10;52.50;;;;;;4989552;28;20457;-70
2023/07/17 09:24:38;;;;;;;6.53;5.40;;;26.00;52.70;;;;;;4989430;28;20490;-70
2023/07/17 09:27:07;;;;;;;7.50;5.20;;;25.80;51.80;;;;;;4993607;28;20477;-71
2023/07/17 09:29:41;;;;;;;8.33;5.03;;;25.90;52.80;;;;;;4994147;28;20467;-70
2023/07/17 09:32:16;;;;;;;6.47;5.40;;;26.00;53.00;;;;;;4994013;28;20485;-71
2023/07/17 09:34:44;;;;;;;7.33;4.60;;;26.50;53.80;;;;;;4993452;28;20453;-70
2023/07/17 09:37:12;;;;;;;8.03;5.53;;;26.80;52.90;;;;;;4993756;28;20475;-70
2023/07/17 09:39:41;;;;;;;8.30;5.73;;;27.20;52.20;;;;;;4993853;28;21052;-71
2023/07/17 09:42:23;;;;;;;6.77;5.30;;;27.40;50.30;;;;;;4993700;28;20949;-71
2023/07/17 09:44:52;;;;;;;6.50;4.90;;;27.50;49.40;;;;;;4993763;28;20472;-71
2023/07/17 09:47:20;;;;;;;6.80;4.70;;;27.60;46.90;;;;;;4993608;28;20513;-71
2023/07/17 09:49:49;;;;;;;5.77;4.97;;;27.50;49.30;;;;;;4993290;28;20489;-70
2023/07/17 09:52:18;;;;;;;5.40;4.90;;;27.30;49.90;;;;;;4993573;28;20494;-71
2023/07/17 09:54:50;;;;;;;6.10;5.03;;;27.20;49.90;;;;;;4993145;28;20983;-70
2023/07/17 09:57:26;;;;;;;6.57;5.60;;;26.80;48.70;;;;;;4993860;28;20426;-70
2023/07/17 09:59:57;;;;;;;6.67;5.57;;;26.70;49.70;;;;;;4993657;28;20459;-70
2023/07/17 10:02:30;;;;;;;7.03;5.47;;;26.90;49.90;;;;;;4993397;28;20481;-70
2023/07/17 10:05:00;;;;;;;5.47;4.97;;;27.10;49.30;;;;;;4993569;28;20453;-71
2023/07/17 10:07:30;;;;;;;7.00;6.10;;;27.60;49.70;;;;;;4993785;28;20540;-70
2023/07/17 10:10:01;;;;;;;6.20;5.57;;;28.10;48.10;;;;;;4993501;28;20482;-70
2023/07/17 10:12:31;;;;;;;6.47;5.83;;;28.50;45.80;;;;;;4993362;28;20443;-70
2023/07/17 10:15:00;;;;;;;9.00;5.43;;;28.60;45.00;;;;;;4993407;28;20533;-71
2023/07/17 10:17:33;;;;;;;5.47;4.83;;;28.80;47.60;;;;;;5007713;28;20463;-72
2023/07/17 10:20:03;;;;;;;8.37;5.40;;;29.90;45.30;;;;;;5032889;28;20453;-68
2023/07/17 10:22:34;;;;;;;5.93;5.03;;;30.20;43.30;;;;;;5006604;28;20455;-69
2023/07/17 10:25:28;;;;;;;7.50;5.70;;;29.70;42.90;;;;;;4993252;28;20443;-70
2023/07/17 10:27:58;;;;;;;5.53;5.03;;;29.50;43.30;;;;;;4983277;28;20590;-70
2023/07/17 10:30:28;;;;;;;7.83;5.63;;;30.00;42.90;;;;;;4992877;28;20513;-69
2023/07/17 10:33:13;;;;;;;6.90;5.10;;;30.10;43.70;;;;;;4992783;28;20439;-69
2023/07/17 10:35:45;;;;;;;5.00;4.50;;;29.60;43.80;;;;;;4992689;28;20443;-70
2023/07/17 10:38:14;;;;;;;6.70;5.87;;;29.50;43.30;;;;;;4997877;28;20442;-69
2023/07/17 10:40:45;;;;;;;5.93;4.97;;;29.60;43.90;;;;;;5012422;28;20549;-72
2023/07/17 10:43:18;;;;;;;6.53;5.43;;;29.60;44.00;;;;;;5012566;28;20891;-69
2023/07/17 10:45:48;;;;;;;6.33;5.17;;;29.10;43.90;;;;;;5012566;28;20500;-69
2023/07/17 10:48:20;;;;;;;7.03;5.80;;;28.60;45.30;;;;;;5012872;28;20438;-69
2023/07/17 10:50:49;;;;;;;5.97;5.47;;;28.50;46.50;;;;;;5012397;28;20852;-70
2023/07/17 10:53:17;;;;;;;6.53;5.80;;;28.30;45.70;;;;;;5011970;28;20449;-70
2023/07/17 10:55:47;;;;;;;6.83;6.10;;;28.60;46.60;;;;;;4997413;28;20451;-69
2023/07/17 10:58:17;;;;;;;7.37;6.00;;;28.60;46.10;;;;;;4992489;28;20529;-69
2023/07/17 11:00:45;;;;;;;6.00;5.20;;;28.40;47.60;;;;;;4992200;28;20551;-69
2023/07/17 11:03:15;;;;;;;6.87;5.90;;;28.20;47.50;;;;;;4992330;28;20490;-70
2023/07/17 11:05:44;;;;;;;9.23;7.27;;;27.90;47.40;;;;;;4992480;28;20525;-69
2023/07/17 11:08:14;;;;;;;7.90;5.67;;;27.60;47.90;;;;;;4992196;28;20502;-70
2023/07/17 11:10:46;;;;;;;6.63;5.77;;;27.80;48.40;;;;;;4997008;28;20561;-69
2023/07/17 11:13:15;;;;;;;7.70;5.73;;;27.80;49.30;;;;;;5011697;28;20560;-69
2023/07/17 11:15:44;;;;;;;7.93;5.97;;;27.60;49.20;;;;;;5011839;28;20450;-70
2023/07/17 11:18:12;;;;;;;8.50;6.67;;;27.50;49.20;;;;;;5011612;28;20434;-68
2023/07/17 11:20:40;;;;;;;6.80;6.10;;;27.60;49.20;;;;;;5011429;28;20984;-69
2023/07/17 11:23:11;;;;;;;9.20;6.50;;;27.60;48.40;;;;;;5011233;28;20450;-69
2023/07/17 11:25:41;;;;;;;7.17;5.77;;;27.70;49.00;;;;;;5011526;28;20520;-70
2023/07/17 11:28:11;;;;;;;7.87;6.40;;;28.10;48.90;;;;;;5009981;28;20477;-69
2023/07/17 11:30:43;;;;;;;7.23;5.60;;;28.40;49.10;;;;;;5011285;28;21047;-69
2023/07/17 11:33:11;;;;;;;8.47;5.60;;;28.60;46.20;;;;;;5011201;28;20512;-69
2023/07/17 11:35:41;;;;;;;6.63;6.00;;;28.70;47.50;;;;;;5011399;28;20449;-69
2023/07/17 11:38:11;;;;;;;7.97;6.07;;;28.80;45.70;;;;;;5011478;28;20485;-69
2023/07/17 11:40:50;;;;;;;6.67;5.60;;;28.70;47.10;;;;;;5011200;28;20454;-69
2023/07/17 11:43:25;;;;;;;7.23;5.80;;;28.60;47.40;;;;;;5009498;28;20497;-69
2023/07/17 11:45:59;;;;;;;7.90;5.90;;;28.50;46.50;;;;;;5011108;28;21100;-69
2023/07/17 11:48:27;;;;;;;9.00;6.43;;;28.00;47.60;;;;;;4994710;28;20818;-69
2023/07/17 11:50:56;;;;;;;6.83;6.20;;;27.50;48.10;;;;;;4993365;28;20467;-69
2023/07/17 11:53:25;;;;;;;6.10;5.50;;;27.40;51.70;;;;;;5010753;28;20449;-70
2023/07/17 11:55:53;;;;;;;9.17;6.10;;;27.70;54.50;;;;;;5011394;28;20508;-69
2023/07/17 11:58:22;;;;;;;5.80;5.20;;;28.40;49.10;;;;;;5010898;28;20472;-69
2023/07/17 12:00:53;;;;;;;6.80;5.40;;;28.80;46.50;;;;;;5011139;28;20470;-69
2023/07/17 12:03:24;;;;;;;7.60;6.10;;;29.30;46.20;;;;;;5011104;28;20422;-69
2023/07/17 12:05:53;;;;;;;7.50;5.87;;;29.30;44.10;;;;;;5001780;28;20451;-69
2023/07/17 12:08:21;;;;;;;6.03;5.40;;;29.60;44.00;;;;;;4991207;28;20489;-69
2023/07/17 12:10:49;;;;;;;6.63;5.60;;;29.50;47.40;;;;;;4991247;28;20509;-69
2023/07/17 12:13:17;;;;;;;6.90;5.60;;;30.10;45.40;;;;;;4990800;28;20513;-69
2023/07/17 12:15:45;;;;;;;7.30;5.60;;;29.70;44.20;;;;;;4991079;28;20474;-69
2023/07/17 12:18:13;;;;;;;8.40;5.13;;;28.80;44.70;;;;;;4991222;28;20451;-69
2023/07/17 12:20:42;;;;;;;8.90;6.17;;;28.30;46.60;;;;;;4991232;28;20490;-69
2023/07/17 12:23:10;;;;;;;7.90;5.23;;;28.00;48.50;;;;;;5007645;28;20449;-70
2023/07/17 12:25:41;;;;;;;11.83;6.30;;;27.90;48.10;;;;;;5010745;28;20457;-70
2023/07/17 12:28:10;;;;;;;7.07;5.37;;;27.80;48.00;;;;;;5010408;28;20480;-69
2023/07/17 12:30:38;;;;;;;7.03;6.10;;;27.80;50.60;;;;;;5010318;28;20513;-70
2023/07/17 12:33:05;;;;;;;7.07;6.13;;;27.90;50.60;;;;;;5010440;28;20844;-70
2023/07/17 12:35:33;;;;;;;7.50;5.90;;;27.90;49.30;;;;;;5010403;28;20933;-69
2023/07/17 12:38:05;;;;;;;7.67;5.47;;;28.00;49.40;;;;;;5008757;28;20448;-69
2023/07/17 12:40:33;;;;;;;7.00;5.70;;;28.00;47.80;;;;;;5010144;28;20919;-70
2023/07/17 12:43:01;;;;;;;6.33;5.40;;;27.90;47.80;;;;;;5010307;28;20450;-69
2023/07/17 12:45:29;;;;;;;8.47;5.03;;;27.90;48.70;;;;;;5010338;28;20450;-72
2023/07/17 12:47:59;;;;;;;7.33;6.30;;;27.80;48.40;;;;;;5010432;28;20476;-70
2023/07/17 12:50:27;;;;;;;7.70;5.50;;;27.80;48.20;;;;;;5010194;28;20560;-69
2023/07/17 12:52:55;;;;;;;9.93;6.10;;;27.70;49.40;;;;;;5009716;28;20508;-69
2023/07/17 12:55:24;;;;;;;6.90;5.20;;;27.70;49.00;;;;;;5008308;28;20450;-70